sensor_id;sensor_type;location;lat;lon;timestamp;temperature;humidity
19224;DHT22;9746;47.180;9.776;2023-09-19T10:11:36;23.50;99.90
19224;DHT22;9746;47.180;9.776;2023-09-19T10:14:07;23.60;99.90
19224;DHT22;9746;47.180;9.776;2023-09-19T10:16:45;23.50;99.90
19224;DHT22;9746;47.180;9.776;2023-09-19T10:19:19;23.50;99.90
19224;DHT22;9746;47.180;9.776;2023-09-19T10:21:49;23.30;99.90
19224;DHT22;9746;47.180;9.776;2023-09-19T10:24:19;23.20;99.90
19224;DHT22;9746;47.180;9.776;2023-09-19T10:26:50;23.10;99.90
19224;DHT22;9746;47.180;9.776;2023-09-19T10:29:19;23.10;99.90
19224;DHT22;9746;47.180;9.776;2023-09-19T10:31:48;23.10;99.90
19224;DHT22;9746;47.180;9.776;2023-09-19T10:34:17;23.10;99.90
19224;DHT22;9746;47.180;9.776;2023-09-19T10:36:45;23.10;99.90
19224;DHT22;9746;47.180;9.776;2023-09-19T10:39:15;23.10;99.90
19224;DHT22;9746;47.180;9.776;2023-09-19T10:41:51;23.30;99.90
19224;DHT22;9746;47.180;9.776;2023-09-19T10:44:23;23.80;99.90
19224;DHT22;9746;47.180;9.776;2023-09-19T10:46:52;24.20;99.90
19224;DHT22;9746;47.180;9.776;2023-09-19T10:49:20;24.60;99.90
19224;DHT22;9746;47.180;9.776;2023-09-19T10:51:52;25.00;99.90
19224;DHT22;9746;47.180;9.776;2023-09-19T10:54:23;25.60;99.90
19224;DHT22;9746;47.180;9.776;2023-09-19T10:56:55;26.20;99.90
19224;DHT22;9746;47.180;9.776;2023-09-19T10:59:25;26.60;99.90
19224;DHT22;9746;47.180;9.776;2023-09-19T11:02:16;26.90;99.90
19224;DHT22;9746;47.180;9.776;2023-09-19T11:04:46;27.30;99.90
19224;DHT22;9746;47.180;9.776;2023-09-19T11:07:15;27.70;99.90
19224;DHT22;9746;47.180;9.776;2023-09-19T11:09:45;28.00;99.90
19224;DHT22;9746;47.180;9.776;2023-09-19T11:12:48;28.50;99.90
19224;DHT22;9746;47.180;9.776;2023-09-19T11:18:51;29.90;99.90
19224;DHT22;9746;47.180;9.776;2023-09-19T11:24:37;30.80;99.90
19224;DHT22;9746;47.180;9.776;2023-09-19T11:27:14;31.50;99.90
19224;DHT22;9746;47.180;9.776;2023-09-19T11:30:27;32.10;99.90
19224;DHT22;9746;47.180;9.776;2023-09-19T11:33:18;32.70;99.90
19224;DHT22;9746;47.180;9.776;2023-09-19T11:36:04;32.80;99.90
19224;DHT22;9746;47.180;9.776;2023-09-19T11:38:59;32.90;99.90
19224;DHT22;9746;47.180;9.776;2023-09-19T11:41:53;33.20;99.90
19224;DHT22;9746;47.180;9.776;2023-09-19T11:44:34;33.40;99.90
19224;DHT22;9746;47.180;9.776;2023-09-19T11:47:07;33.50;99.90
19224;DHT22;9746;47.180;9.776;2023-09-19T11:49:35;33.30;99.90
19224;DHT22;9746;47.180;9.776;2023-09-19T11:52:11;33.50;99.90
19224;DHT22;9746;47.180;9.776;2023-09-19T11:54:40;33.80;99.90
19224;DHT22;9746;47.180;9.776;2023-09-19T11:57:11;34.20;99.90
19224;DHT22;9746;47.180;9.776;2023-09-19T11:59:48;34.60;99.90
19224;DHT22;9746;47.180;9.776;2023-09-19T12:02:27;34.80;99.90
19224;DHT22;9746;47.180;9.776;2023-09-19T12:05:01;34.80;99.90
19224;DHT22;9746;47.180;9.776;2023-09-19T12:07:29;34.70;99.90
19224;DHT22;9746;47.180;9.776;2023-09-19T12:10:13;35.20;99.90
19224;DHT22;9746;47.180;9.776;2023-09-19T12:12:47;35.10;99.50
19224;DHT22;9746;47.180;9.776;2023-09-19T12:15:23;34.50;98.70
19224;DHT22;9746;47.180;9.776;2023-09-19T12:17:55;33.80;98.90
19224;DHT22;9746;47.180;9.776;2023-09-19T12:20:42;34.00;99.00
19224;DHT22;9746;47.180;9.776;2023-09-19T12:23:13;34.30;99.90
19224;DHT22;9746;47.180;9.776;2023-09-19T12:25:44;34.20;98.80
19224;DHT22;9746;47.180;9.776;2023-09-19T12:28:13;34.20;99.20
19224;DHT22;9746;47.180;9.776;2023-09-19T12:30:55;34.60;98.10
19224;DHT22;9746;47.180;9.776;2023-09-19T12:33:23;35.10;98.10
19224;DHT22;9746;47.180;9.776;2023-09-19T12:36:05;35.40;97.30
19224;DHT22;9746;47.180;9.776;2023-09-19T12:38:48;35.30;95.80
19224;DHT22;9746;47.180;9.776;2023-09-19T12:41:16;35.80;96.70
19224;DHT22;9746;47.180;9.776;2023-09-19T12:43:44;36.60;96.30
19224;DHT22;9746;47.180;9.776;2023-09-19T12:46:22;36.00;94.00
19224;DHT22;9746;47.180;9.776;2023-09-19T12:49:16;34.90;96.20
19224;DHT22;9746;47.180;9.776;2023-09-19T12:51:55;35.10;94.30
19224;DHT22;9746;47.180;9.776;2023-09-19T12:54:24;35.70;94.20
19224;DHT22;9746;47.180;9.776;2023-09-19T12:56:54;36.70;93.60
19224;DHT22;9746;47.180;9.776;2023-09-19T12:59:29;36.70;92.40
19224;DHT22;9746;47.180;9.776;2023-09-19T13:02:06;36.20;92.20
19224;DHT22;9746;47.180;9.776;2023-09-19T13:04:39;36.00;93.20
19224;DHT22;9746;47.180;9.776;2023-09-19T13:07:40;37.00;91.90
19224;DHT22;9746;47.180;9.776;2023-09-19T13:10:10;35.90;91.60
19224;DHT22;9746;47.180;9.776;2023-09-19T13:12:42;35.20;92.40
19224;DHT22;9746;47.180;9.776;2023-09-19T13:15:17;35.30;93.50
19224;DHT22;9746;47.180;9.776;2023-09-19T13:17:53;35.70;91.80
19224;DHT22;9746;47.180;9.776;2023-09-19T13:20:26;35.00;92.20
19224;DHT22;9746;47.180;9.776;2023-09-19T13:22:58;35.50;91.70
19224;DHT22;9746;47.180;9.776;2023-09-19T13:25:38;34.30;92.60
19224;DHT22;9746;47.180;9.776;2023-09-19T13:28:06;33.90;93.70
19224;DHT22;9746;47.180;9.776;2023-09-19T13:30:37;34.60;93.80
19224;DHT22;9746;47.180;9.776;2023-09-19T13:33:11;35.30;92.00
19224;DHT22;9746;47.180;9.776;2023-09-19T13:35:46;36.10;91.90
19224;DHT22;9746;47.180;9.776;2023-09-19T13:38:14;36.40;90.90
19224;DHT22;9746;47.180;9.776;2023-09-19T13:40:41;36.40;90.20
19224;DHT22;9746;47.180;9.776;2023-09-19T13:43:09;36.20;90.50
19224;DHT22;9746;47.180;9.776;2023-09-19T13:45:37;36.50;90.90
19224;DHT22;9746;47.180;9.776;2023-09-19T13:48:05;37.10;89.20
19224;DHT22;9746;47.180;9.776;2023-09-19T13:50:35;37.20;89.20
19224;DHT22;9746;47.180;9.776;2023-09-19T13:53:07;38.10;88.30
19224;DHT22;9746;47.180;9.776;2023-09-19T13:55:35;38.90;86.70
19224;DHT22;9746;47.180;9.776;2023-09-19T13:58:04;39.60;83.90
19224;DHT22;9746;47.180;9.776;2023-09-19T14:00:33;40.10;81.60
19224;DHT22;9746;47.180;9.776;2023-09-19T14:03:01;39.90;80.10
19224;DHT22;9746;47.180;9.776;2023-09-19T14:05:30;38.80;80.60
19224;DHT22;9746;47.180;9.776;2023-09-19T14:08:00;38.50;84.30
19224;DHT22;9746;47.180;9.776;2023-09-19T14:10:29;39.20;83.20
19224;DHT22;9746;47.180;9.776;2023-09-19T14:12:57;39.50;78.70
19224;DHT22;9746;47.180;9.776;2023-09-19T14:15:25;39.60;79.70
19224;DHT22;9746;47.180;9.776;2023-09-19T14:17:57;38.70;78.90
19224;DHT22;9746;47.180;9.776;2023-09-19T14:20:25;38.70;77.70
19224;DHT22;9746;47.180;9.776;2023-09-19T14:22:54;39.00;77.50
19224;DHT22;9746;47.180;9.776;2023-09-19T14:25:23;39.30;78.10
19224;DHT22;9746;47.180;9.776;2023-09-19T14:27:51;39.10;77.10
19224;DHT22;9746;47.180;9.776;2023-09-19T14:30:19;38.80;75.60
19224;DHT22;9746;47.180;9.776;2023-09-19T14:32:46;38.60;75.60
19224;DHT22;9746;47.180;9.776;2023-09-19T14:35:14;38.20;76.40
19224;DHT22;9746;47.180;9.776;2023-09-19T14:37:42;37.90;79.10
19224;DHT22;9746;47.180;9.776;2023-09-19T14:40:11;37.80;77.10
19224;DHT22;9746;47.180;9.776;2023-09-19T14:42:51;37.60;78.10
19224;DHT22;9746;47.180;9.776;2023-09-19T14:45:19;38.00;78.10
19224;DHT22;9746;47.180;9.776;2023-09-19T14:47:55;38.50;76.80
19224;DHT22;9746;47.180;9.776;2023-09-19T14:50:23;38.60;77.00
19224;DHT22;9746;47.180;9.776;2023-09-19T14:52:50;38.90;78.90
19224;DHT22;9746;47.180;9.776;2023-09-19T14:55:20;39.20;75.10
19224;DHT22;9746;47.180;9.776;2023-09-19T14:57:51;38.60;74.30
19224;DHT22;9746;47.180;9.776;2023-09-19T15:00:18;37.60;76.70
19224;DHT22;9746;47.180;9.776;2023-09-19T15:02:47;37.30;77.00
19224;DHT22;9746;47.180;9.776;2023-09-19T15:05:16;36.70;78.60
19224;DHT22;9746;47.180;9.776;2023-09-19T15:07:54;37.40;79.50
19224;DHT22;9746;47.180;9.776;2023-09-19T15:10:23;38.40;77.10
19224;DHT22;9746;47.180;9.776;2023-09-19T15:12:52;39.00;75.60
19224;DHT22;9746;47.180;9.776;2023-09-19T15:15:20;39.50;73.50
19224;DHT22;9746;47.180;9.776;2023-09-19T15:17:57;39.80;71.90
19224;DHT22;9746;47.180;9.776;2023-09-19T15:20:25;39.50;71.70
19224;DHT22;9746;47.180;9.776;2023-09-19T15:23:02;39.50;72.40
19224;DHT22;9746;47.180;9.776;2023-09-19T15:25:29;39.30;72.00
19224;DHT22;9746;47.180;9.776;2023-09-19T15:28:06;39.10;72.60
19224;DHT22;9746;47.180;9.776;2023-09-19T15:30:37;39.00;72.70
19224;DHT22;9746;47.180;9.776;2023-09-19T15:33:27;38.80;72.60
19224;DHT22;9746;47.180;9.776;2023-09-19T15:36:01;38.50;72.50
19224;DHT22;9746;47.180;9.776;2023-09-19T15:38:59;38.40;72.80
19224;DHT22;9746;47.180;9.776;2023-09-19T15:41:31;38.40;72.50
19224;DHT22;9746;47.180;9.776;2023-09-19T15:44:02;38.10;72.80
19224;DHT22;9746;47.180;9.776;2023-09-19T15:49:31;34.90;76.40
19224;DHT22;9746;47.180;9.776;2023-09-19T15:52:33;33.50;79.30
19224;DHT22;9746;47.180;9.776;2023-09-19T15:55:03;32.70;82.10
19224;DHT22;9746;47.180;9.776;2023-09-19T15:57:42;31.70;84.90
19224;DHT22;9746;47.180;9.776;2023-09-19T16:00:13;30.70;85.80
19224;DHT22;9746;47.180;9.776;2023-09-19T16:02:45;30.10;87.40
19224;DHT22;9746;47.180;9.776;2023-09-19T16:05:12;29.10;90.80
19224;DHT22;9746;47.180;9.776;2023-09-19T16:07:46;28.30;92.60
19224;DHT22;9746;47.180;9.776;2023-09-19T16:10:13;27.70;93.50
19224;DHT22;9746;47.180;9.776;2023-09-19T16:12:57;27.10;93.80
19224;DHT22;9746;47.180;9.776;2023-09-19T16:15:26;27.00;95.20
19224;DHT22;9746;47.180;9.776;2023-09-19T16:18:10;26.70;94.10
19224;DHT22;9746;47.180;9.776;2023-09-19T16:20:37;26.50;95.40
19224;DHT22;9746;47.180;9.776;2023-09-19T16:23:13;26.20;95.60
19224;DHT22;9746;47.180;9.776;2023-09-19T16:25:40;26.00;95.30
19224;DHT22;9746;47.180;9.776;2023-09-19T16:28:10;25.90;95.40
19224;DHT22;9746;47.180;9.776;2023-09-19T16:30:39;25.80;96.50
19224;DHT22;9746;47.180;9.776;2023-09-19T16:36:18;25.50;98.80
19224;DHT22;9746;47.180;9.776;2023-09-19T16:38:50;25.40;99.70
19224;DHT22;9746;47.180;9.776;2023-09-19T16:41:18;25.20;99.90
19224;DHT22;9746;47.180;9.776;2023-09-19T16:43:47;24.60;99.90
19224;DHT22;9746;47.180;9.776;2023-09-19T16:46:16;24.30;99.90
19224;DHT22;9746;47.180;9.776;2023-09-19T16:49:01;23.90;99.90
19224;DHT22;9746;47.180;9.776;2023-09-19T16:51:30;23.50;99.90
19224;DHT22;9746;47.180;9.776;2023-09-19T16:53:58;23.10;99.90
19224;DHT22;9746;47.180;9.776;2023-09-19T16:56:27;22.60;99.90
19224;DHT22;9746;47.180;9.776;2023-09-19T16:58:57;22.50;99.90
19224;DHT22;9746;47.180;9.776;2023-09-19T17:01:28;22.40;99.90
19224;DHT22;9746;47.180;9.776;2023-09-19T17:04:06;22.30;99.90
19224;DHT22;9746;47.180;9.776;2023-09-19T17:06:34;22.30;99.90
19224;DHT22;9746;47.180;9.776;2023-09-19T17:09:03;22.20;99.90
19224;DHT22;9746;47.180;9.776;2023-09-19T17:11:31;22.00;99.90
19224;DHT22;9746;47.180;9.776;2023-09-19T17:14:14;21.90;99.90
19224;DHT22;9746;47.180;9.776;2023-09-19T17:16:43;21.70;99.90
19224;DHT22;9746;47.180;9.776;2023-09-19T17:19:28;21.60;99.90
19224;DHT22;9746;47.180;9.776;2023-09-19T17:21:55;21.50;99.90
19224;DHT22;9746;47.180;9.776;2023-09-19T17:24:23;21.40;99.90
19224;DHT22;9746;47.180;9.776;2023-09-19T17:26:50;21.30;99.90
19224;DHT22;9746;47.180;9.776;2023-09-19T17:29:17;21.20;99.90
19224;DHT22;9746;47.180;9.776;2023-09-19T17:31:47;21.10;99.90
19224;DHT22;9746;47.180;9.776;2023-09-19T17:34:15;21.00;99.90
19224;DHT22;9746;47.180;9.776;2023-09-19T17:36:42;20.80;99.90
19224;DHT22;9746;47.180;9.776;2023-09-19T17:39:12;20.70;99.90
19224;DHT22;9746;47.180;9.776;2023-09-19T17:41:41;20.50;99.90
19224;DHT22;9746;47.180;9.776;2023-09-19T17:44:10;20.40;99.90
19224;DHT22;9746;47.180;9.776;2023-09-19T17:46:37;20.30;99.90
19224;DHT22;9746;47.180;9.776;2023-09-19T17:49:09;20.20;99.90
19224;DHT22;9746;47.180;9.776;2023-09-19T17:51:39;20.10;99.90
19224;DHT22;9746;47.180;9.776;2023-09-19T17:57:30;19.90;99.90
19224;DHT22;9746;47.180;9.776;2023-09-19T17:59:57;19.70;99.90
19224;DHT22;9746;47.180;9.776;2023-09-19T18:02:28;19.60;99.90
19224;DHT22;9746;47.180;9.776;2023-09-19T18:04:56;19.50;99.90
19224;DHT22;9746;47.180;9.776;2023-09-19T18:07:37;19.40;99.90
19224;DHT22;9746;47.180;9.776;2023-09-19T18:10:06;19.40;99.90
19224;DHT22;9746;47.180;9.776;2023-09-19T18:12:34;19.40;99.90
19224;DHT22;9746;47.180;9.776;2023-09-19T18:15:03;19.30;99.90
19224;DHT22;9746;47.180;9.776;2023-09-19T18:17:35;19.20;99.90
19224;DHT22;9746;47.180;9.776;2023-09-19T18:20:28;19.20;99.90
19224;DHT22;9746;47.180;9.776;2023-09-19T18:23:07;19.20;99.90
19224;DHT22;9746;47.180;9.776;2023-09-19T18:25:35;19.20;99.90
19224;DHT22;9746;47.180;9.776;2023-09-19T18:28:04;19.10;99.90
19224;DHT22;9746;47.180;9.776;2023-09-19T18:30:31;19.00;99.90
19224;DHT22;9746;47.180;9.776;2023-09-19T18:33:01;19.00;99.90
19224;DHT22;9746;47.180;9.776;2023-09-19T18:35:32;18.90;99.90
19224;DHT22;9746;47.180;9.776;2023-09-19T18:38:08;18.80;99.90
19224;DHT22;9746;47.180;9.776;2023-09-19T18:40:36;18.70;99.90
19224;DHT22;9746;47.180;9.776;2023-09-19T18:43:06;18.70;99.90
19224;DHT22;9746;47.180;9.776;2023-09-19T18:45:34;18.60;99.90
19224;DHT22;9746;47.180;9.776;2023-09-19T18:48:23;18.60;99.90
19224;DHT22;9746;47.180;9.776;2023-09-19T18:50:53;18.50;99.90
19224;DHT22;9746;47.180;9.776;2023-09-19T18:53:24;18.50;99.90
19224;DHT22;9746;47.180;9.776;2023-09-19T18:56:04;18.40;99.90
19224;DHT22;9746;47.180;9.776;2023-09-19T18:58:34;18.30;99.90
19224;DHT22;9746;47.180;9.776;2023-09-19T19:01:03;18.20;99.90
19224;DHT22;9746;47.180;9.776;2023-09-19T19:03:30;18.20;99.90
19224;DHT22;9746;47.180;9.776;2023-09-19T19:06:05;18.10;99.90
19224;DHT22;9746;47.180;9.776;2023-09-19T19:08:38;18.10;99.90
19224;DHT22;9746;47.180;9.776;2023-09-19T19:11:07;18.10;99.90
19224;DHT22;9746;47.180;9.776;2023-09-19T19:13:37;18.00;99.90
19224;DHT22;9746;47.180;9.776;2023-09-19T19:16:05;18.00;99.90
19224;DHT22;9746;47.180;9.776;2023-09-19T19:18:36;18.00;99.90
19224;DHT22;9746;47.180;9.776;2023-09-19T19:21:07;17.90;99.90
19224;DHT22;9746;47.180;9.776;2023-09-19T19:23:46;17.90;99.90
19224;DHT22;9746;47.180;9.776;2023-09-19T19:26:15;17.70;99.90
19224;DHT22;9746;47.180;9.776;2023-09-19T19:28:43;17.70;99.90
19224;DHT22;9746;47.180;9.776;2023-09-19T19:31:11;17.60;99.90
19224;DHT22;9746;47.180;9.776;2023-09-19T19:33:42;17.60;99.90
19224;DHT22;9746;47.180;9.776;2023-09-19T19:36:11;17.50;99.90
19224;DHT22;9746;47.180;9.776;2023-09-19T19:38:40;17.50;99.90
